createdAt,value
2023-08-11T00:01:06.707Z,4.63
2023-08-11T00:03:35.526Z,5.00
2023-08-11T00:06:03.216Z,8.23
2023-08-11T00:08:30.824Z,5.68
2023-08-11T00:10:59.836Z,4.55
2023-08-11T00:13:27.429Z,6.40
2023-08-11T00:15:56.870Z,4.90
2023-08-11T00:18:24.523Z,4.40
2023-08-11T00:20:52.398Z,5.35
2023-08-11T00:23:20.049Z,5.32
2023-08-11T00:25:47.680Z,6.00
2023-08-11T00:28:16.707Z,6.72
2023-08-11T00:30:44.302Z,4.60
2023-08-11T00:33:12.645Z,5.47
2023-08-11T00:35:42.556Z,6.07
2023-08-11T00:38:10.191Z,5.63
2023-08-11T00:40:37.955Z,5.78
2023-08-11T00:43:05.688Z,5.73
2023-08-11T00:45:35.030Z,7.47
2023-08-11T00:48:02.806Z,5.80
2023-08-11T00:50:31.108Z,8.25
2023-08-11T00:53:02.243Z,6.65
2023-08-11T00:55:29.988Z,6.13
2023-08-11T00:57:57.546Z,6.10
2023-08-11T01:00:25.978Z,7.10
2023-08-11T01:02:55.150Z,4.68
2023-08-11T01:05:23.000Z,5.97
2023-08-11T01:07:58.453Z,6.77
2023-08-11T01:10:30.029Z,5.68
2023-08-11T01:13:02.228Z,6.50
2023-08-11T01:15:32.914Z,11.25
2023-08-11T01:18:02.352Z,5.72
2023-08-11T01:20:30.120Z,5.53
2023-08-11T01:22:59.065Z,7.97
2023-08-11T01:25:28.271Z,8.02
2023-08-11T01:27:56.829Z,5.63
2023-08-11T01:30:24.438Z,9.80
2023-08-11T01:32:53.016Z,5.70
2023-08-11T01:35:33.586Z,5.18
2023-08-11T01:38:01.833Z,8.15
2023-08-11T01:40:31.119Z,6.53
2023-08-11T01:43:00.755Z,5.18
2023-08-11T01:45:29.776Z,5.70
2023-08-11T01:47:57.806Z,6.18
2023-08-11T01:50:26.073Z,6.13
2023-08-11T01:52:55.316Z,7.28
2023-08-11T01:55:24.850Z,5.10
2023-08-11T01:57:58.995Z,7.20
2023-08-11T02:00:27.748Z,5.60
2023-08-11T02:02:56.056Z,8.15
2023-08-11T02:05:25.947Z,5.97
2023-08-11T02:07:54.727Z,6.50
2023-08-11T02:10:22.522Z,7.00
2023-08-11T02:12:50.143Z,6.97
2023-08-11T02:15:20.040Z,6.50
2023-08-11T02:17:47.885Z,6.72
2023-08-11T02:20:20.082Z,7.63
2023-08-11T02:22:47.688Z,8.80
2023-08-11T02:25:16.057Z,5.88
2023-08-11T02:27:44.772Z,6.32
2023-08-11T02:30:13.441Z,11.07
2023-08-11T02:32:42.833Z,6.85
2023-08-11T02:35:11.763Z,6.67
2023-08-11T02:37:40.153Z,5.63
2023-08-11T02:40:10.354Z,7.10
2023-08-11T02:42:39.407Z,7.78
2023-08-11T02:45:10.447Z,6.07
2023-08-11T02:47:38.207Z,7.83
2023-08-11T02:50:07.859Z,6.97
2023-08-11T02:52:35.973Z,7.57
2023-08-11T02:55:03.897Z,6.30
2023-08-11T02:57:32.351Z,7.10
2023-08-11T02:59:59.893Z,9.53
2023-08-11T03:02:27.550Z,8.80
2023-08-11T03:04:55.256Z,10.65
2023-08-11T03:07:24.261Z,7.68
2023-08-11T03:09:51.832Z,8.45
2023-08-11T03:12:19.430Z,8.33
2023-08-11T03:14:46.994Z,6.78
2023-08-11T03:17:14.809Z,7.32
2023-08-11T03:19:42.629Z,7.55
2023-08-11T03:22:10.372Z,7.43
2023-08-11T03:24:39.393Z,6.80
2023-08-11T03:27:07.053Z,7.97
2023-08-11T03:29:34.622Z,7.53
2023-08-11T03:32:02.282Z,6.35
2023-08-11T03:34:29.892Z,7.22
2023-08-11T03:36:57.480Z,7.00
2023-08-11T03:39:25.116Z,6.38
2023-08-11T03:41:54.089Z,8.63
2023-08-11T03:44:21.707Z,9.18
2023-08-11T03:46:50.068Z,7.50
2023-08-11T03:49:18.262Z,6.60
2023-08-11T03:51:45.922Z,7.57
2023-08-11T03:54:13.523Z,7.22
2023-08-11T03:56:41.083Z,8.00
2023-08-11T03:59:10.023Z,6.93
2023-08-11T04:01:37.852Z,7.70
2023-08-11T04:04:05.707Z,9.85
2023-08-11T04:06:34.245Z,10.52
2023-08-11T04:09:01.835Z,9.82
2023-08-11T04:11:30.937Z,7.60
2023-08-11T04:13:58.534Z,9.63
2023-08-11T04:16:28.056Z,9.35
2023-08-11T04:18:55.737Z,8.25
2023-08-11T04:21:24.177Z,7.25
2023-08-11T04:23:51.790Z,8.93
2023-08-11T04:26:19.499Z,8.73
2023-08-11T04:28:47.292Z,10.05
2023-08-11T04:31:15.378Z,6.28
2023-08-11T04:33:44.354Z,7.90
2023-08-11T04:36:11.956Z,7.20
2023-08-11T04:38:39.625Z,8.57
2023-08-11T04:41:07.288Z,7.03
2023-08-11T04:43:34.860Z,8.80
2023-08-11T04:46:02.545Z,7.78
2023-08-11T04:48:30.143Z,7.40
2023-08-11T04:51:00.193Z,7.27
2023-08-11T04:53:27.881Z,7.50
2023-08-11T04:55:55.481Z,8.70
2023-08-11T04:58:23.058Z,8.05
2023-08-11T05:00:50.681Z,8.45
2023-08-11T05:03:18.450Z,8.47
2023-08-11T05:05:46.722Z,7.50
2023-08-11T05:08:15.890Z,7.05
2023-08-11T05:10:43.450Z,6.72
2023-08-11T05:13:11.048Z,9.80
2023-08-11T05:15:39.632Z,8.13
2023-08-11T05:18:07.208Z,8.80
2023-08-11T05:20:35.015Z,7.78
2023-08-11T05:23:02.974Z,8.23
2023-08-11T05:25:31.956Z,8.52
2023-08-11T05:27:59.539Z,7.23
2023-08-11T05:30:28.898Z,6.72
2023-08-11T05:32:57.487Z,9.20
2023-08-11T05:35:25.314Z,11.07
2023-08-11T05:37:52.901Z,7.20
2023-08-11T05:40:20.537Z,8.20
2023-08-11T05:42:49.530Z,7.45
2023-08-11T05:45:18.379Z,12.55
2023-08-11T05:47:46.484Z,8.98
2023-08-11T05:50:14.360Z,7.25
2023-08-11T05:52:41.942Z,7.27
2023-08-11T05:55:10.022Z,7.60
2023-08-11T05:57:37.622Z,7.00
2023-08-11T06:00:07.747Z,7.88
2023-08-11T06:02:35.385Z,7.78
2023-08-11T06:05:02.972Z,8.70
2023-08-11T06:07:30.847Z,7.03
2023-08-11T06:09:59.911Z,9.27
2023-08-11T06:12:29.620Z,9.00
2023-08-11T06:14:57.161Z,8.32
2023-08-11T06:17:26.171Z,6.50
2023-08-11T06:19:53.921Z,7.93
2023-08-11T06:22:21.528Z,9.40
2023-08-11T06:24:49.089Z,7.47
2023-08-11T06:27:16.729Z,9.85
2023-08-11T06:29:44.460Z,7.23
2023-08-11T06:32:12.073Z,8.00
2023-08-11T06:34:40.998Z,8.45
2023-08-11T06:37:08.785Z,7.38
2023-08-11T06:39:36.592Z,8.57
2023-08-11T06:42:04.174Z,6.83
2023-08-11T06:44:31.731Z,7.63
2023-08-11T06:46:59.289Z,8.65
2023-08-11T06:49:26.958Z,7.88
2023-08-11T06:51:55.883Z,9.02
2023-08-11T06:54:23.614Z,10.40
2023-08-11T06:56:51.262Z,9.77
2023-08-11T06:59:19.348Z,10.38
2023-08-11T07:01:46.988Z,10.45
2023-08-11T07:04:14.585Z,10.15
2023-08-11T07:06:42.219Z,11.63
2023-08-11T07:09:11.148Z,11.65
2023-08-11T07:11:38.772Z,9.48
2023-08-11T07:14:06.773Z,9.43
2023-08-11T07:16:34.360Z,10.32
2023-08-11T07:19:01.979Z,9.00
2023-08-11T07:21:29.536Z,13.57
2023-08-11T07:23:57.196Z,8.82
2023-08-11T07:26:26.180Z,9.85
2023-08-11T07:28:53.762Z,9.23
2023-08-11T07:31:21.518Z,7.73
2023-08-11T07:33:49.108Z,7.07
2023-08-11T07:36:16.717Z,10.13
2023-08-11T07:38:44.470Z,8.13
2023-08-11T07:41:12.155Z,7.88
2023-08-11T07:43:41.129Z,8.73
2023-08-11T07:46:08.828Z,8.85
2023-08-11T07:48:36.472Z,8.25
2023-08-11T07:51:04.071Z,8.05
2023-08-11T07:53:32.928Z,10.70
2023-08-11T07:56:00.533Z,9.63
2023-08-11T07:58:28.206Z,9.40
2023-08-11T08:00:57.141Z,7.00
2023-08-11T08:03:24.836Z,7.35
2023-08-11T08:05:52.535Z,8.52
2023-08-11T08:08:20.091Z,7.87
2023-08-11T08:10:47.639Z,10.32
2023-08-11T08:13:15.280Z,8.27
2023-08-11T08:15:42.870Z,7.60
2023-08-11T08:18:11.819Z,6.95
2023-08-11T08:20:39.433Z,8.60
2023-08-11T08:23:10.115Z,8.57
2023-08-11T08:25:38.943Z,8.43
2023-08-11T08:28:07.453Z,7.95
2023-08-11T08:30:35.538Z,9.88
2023-08-11T08:33:03.198Z,8.57
2023-08-11T08:35:32.188Z,9.13
2023-08-11T08:37:59.817Z,7.72
2023-08-11T08:40:27.757Z,7.47
2023-08-11T08:42:55.670Z,6.70
2023-08-11T08:45:23.613Z,9.00
2023-08-11T08:47:52.093Z,8.18
2023-08-11T08:50:21.088Z,9.18
2023-08-11T08:52:50.857Z,7.10
2023-08-11T08:55:18.489Z,7.75
2023-08-11T08:57:47.826Z,7.60
2023-08-11T09:00:15.654Z,7.28
2023-08-11T09:02:43.805Z,9.60
2023-08-11T09:05:13.134Z,8.65
2023-08-11T09:07:40.716Z,9.15
2023-08-11T09:10:10.269Z,8.13
2023-08-11T09:12:38.062Z,8.52
2023-08-11T09:15:10.286Z,7.55
2023-08-11T09:17:38.902Z,6.90
2023-08-11T09:20:08.417Z,8.88
2023-08-11T09:22:38.859Z,7.63
2023-08-11T09:25:07.437Z,7.40
2023-08-11T09:27:37.397Z,7.38
2023-08-11T09:30:05.347Z,8.85
2023-08-11T09:32:33.778Z,8.18
2023-08-11T09:35:03.541Z,7.60
2023-08-11T09:37:31.317Z,8.45
2023-08-11T09:40:01.240Z,7.60
2023-08-11T09:42:28.979Z,7.70
2023-08-11T09:44:57.922Z,7.57
2023-08-11T09:47:25.599Z,9.07
2023-08-11T09:49:53.321Z,8.13
2023-08-11T09:52:21.558Z,6.22
2023-08-11T09:54:51.148Z,7.38
2023-08-11T09:57:19.480Z,6.45
2023-08-11T09:59:48.467Z,11.70
2023-08-11T10:02:19.662Z,7.53
2023-08-11T10:04:51.922Z,7.75
2023-08-11T10:07:21.024Z,6.78
2023-08-11T10:09:50.545Z,8.30
2023-08-11T10:12:18.369Z,7.00
2023-08-11T10:14:46.145Z,8.70
2023-08-11T10:17:14.831Z,8.60
2023-08-11T10:19:44.230Z,7.38
2023-08-11T10:22:12.619Z,9.50
2023-08-11T10:24:42.125Z,8.53
2023-08-11T10:27:10.155Z,9.35
2023-08-11T10:29:38.049Z,7.30
2023-08-11T10:32:05.986Z,7.65
2023-08-11T10:34:34.438Z,7.78
2023-08-11T10:37:03.447Z,8.33
2023-08-11T10:39:31.020Z,7.45
2023-08-11T10:41:59.032Z,8.70
2023-08-11T10:44:29.174Z,8.57
2023-08-11T10:46:59.353Z,7.93
2023-08-11T10:49:34.418Z,10.57
2023-08-11T10:52:04.812Z,6.85
2023-08-11T10:54:32.471Z,6.93
2023-08-11T10:57:01.672Z,6.40
2023-08-11T10:59:31.121Z,8.35
2023-08-11T11:02:00.848Z,7.47
2023-08-11T11:04:32.767Z,6.70
2023-08-11T11:07:01.307Z,6.53
2023-08-11T11:09:30.686Z,7.88
2023-08-11T11:11:58.855Z,7.35
2023-08-11T11:14:30.195Z,8.00
2023-08-11T11:16:59.998Z,8.40
2023-08-11T11:19:28.298Z,7.95
2023-08-11T11:21:56.177Z,7.72
2023-08-11T11:24:23.766Z,7.72
2023-08-11T11:26:52.988Z,7.33
2023-08-11T11:29:24.874Z,7.50
2023-08-11T11:31:53.096Z,8.20
2023-08-11T11:34:20.754Z,8.27
2023-08-11T11:36:48.793Z,10.40
2023-08-11T11:39:16.550Z,9.57
2023-08-11T11:41:44.134Z,7.35
2023-08-11T11:44:13.251Z,8.40
2023-08-11T11:46:41.050Z,7.00
2023-08-11T11:49:19.893Z,7.22
2023-08-11T11:51:57.542Z,8.40
2023-08-11T11:54:25.115Z,8.25
2023-08-11T11:57:03.356Z,8.35
2023-08-11T11:59:33.474Z,7.03
2023-08-11T12:02:02.288Z,8.88
2023-08-11T12:04:30.468Z,5.30
2023-08-11T12:06:58.245Z,6.25
2023-08-11T12:09:25.923Z,7.90
2023-08-11T12:11:55.496Z,7.00
2023-08-11T12:14:23.314Z,7.25
2023-08-11T12:16:52.422Z,6.10
2023-08-11T12:19:20.196Z,6.75
2023-08-11T12:21:48.018Z,6.85
2023-08-11T12:24:16.062Z,8.07
2023-08-11T12:26:43.770Z,7.68
2023-08-11T12:29:11.320Z,7.03
2023-08-11T12:31:39.438Z,6.53
2023-08-11T12:34:08.373Z,7.03
2023-08-11T12:36:35.952Z,6.40
2023-08-11T12:39:04.524Z,5.53
2023-08-11T12:41:32.178Z,6.33
2023-08-11T12:43:59.790Z,5.80
2023-08-11T12:46:27.534Z,6.57
2023-08-11T12:48:55.140Z,6.03
2023-08-11T12:51:24.167Z,6.72
2023-08-11T12:53:51.795Z,4.87
2023-08-11T12:56:19.774Z,5.60
2023-08-11T12:58:47.407Z,5.55
2023-08-11T13:01:18.434Z,5.57
2023-08-11T13:03:46.334Z,5.75
2023-08-11T13:06:14.037Z,5.40
2023-08-11T13:08:43.060Z,4.60
2023-08-11T13:11:10.598Z,4.20
2023-08-11T13:13:38.173Z,5.03
2023-08-11T13:16:06.264Z,4.97
2023-08-11T13:18:33.861Z,3.80
2023-08-11T13:21:01.596Z,4.72
2023-08-11T13:23:32.416Z,4.20
2023-08-11T13:26:01.377Z,5.05
2023-08-11T13:28:29.070Z,5.20
2023-08-11T13:30:56.719Z,6.00
2023-08-11T13:33:24.281Z,3.78
2023-08-11T13:35:51.884Z,4.15
2023-08-11T13:38:19.490Z,4.65
2023-08-11T13:40:49.041Z,3.58
2023-08-11T13:43:20.427Z,3.70
2023-08-11T13:45:48.121Z,4.30
2023-08-11T13:48:17.503Z,3.70
2023-08-11T13:50:45.152Z,5.55
2023-08-11T13:53:13.089Z,3.78
2023-08-11T13:55:40.871Z,3.37
2023-08-11T13:58:08.448Z,3.85
2023-08-11T14:00:37.419Z,4.50
2023-08-11T14:03:05.258Z,3.53
2023-08-11T14:05:32.941Z,3.38
2023-08-11T14:08:00.542Z,3.40
2023-08-11T14:10:28.233Z,3.47
2023-08-11T14:12:55.824Z,3.72
2023-08-11T14:15:23.399Z,3.70
2023-08-11T14:17:52.377Z,4.40
2023-08-11T14:20:19.966Z,3.57
2023-08-11T14:22:47.658Z,3.30
2023-08-11T14:25:15.241Z,3.60
2023-08-11T14:27:42.852Z,5.45
2023-08-11T14:30:10.760Z,3.92
2023-08-11T14:32:38.505Z,4.10
2023-08-11T14:35:09.067Z,3.80
2023-08-11T14:37:36.690Z,3.80
2023-08-11T14:40:05.200Z,4.07
2023-08-11T14:42:32.859Z,4.15
2023-08-11T14:45:00.659Z,4.47
2023-08-11T14:47:28.240Z,5.10
2023-08-11T14:49:55.908Z,4.82
2023-08-11T14:52:24.841Z,4.10
2023-08-11T14:54:52.474Z,4.60
2023-08-11T14:57:20.796Z,3.70
2023-08-11T14:59:49.113Z,4.28
2023-08-11T15:02:16.719Z,5.13
2023-08-11T15:04:44.337Z,4.32
2023-08-11T15:07:11.995Z,3.90
2023-08-11T15:09:41.025Z,4.37
2023-08-11T15:12:09.916Z,5.45
2023-08-11T15:14:37.895Z,4.68
2023-08-11T15:17:05.479Z,5.82
2023-08-11T15:19:33.094Z,4.55
2023-08-11T15:22:00.716Z,4.83
2023-08-11T15:24:28.307Z,5.00
2023-08-11T15:26:57.323Z,4.40
2023-08-11T15:29:24.893Z,6.10
2023-08-11T15:31:54.713Z,7.25
2023-08-11T15:34:22.547Z,4.73
2023-08-11T15:36:50.155Z,4.38
2023-08-11T15:39:17.734Z,5.35
2023-08-11T15:41:45.317Z,6.43
2023-08-11T15:44:14.522Z,4.57
2023-08-11T15:46:42.175Z,5.87
2023-08-11T15:49:09.780Z,5.32
2023-08-11T15:51:37.412Z,5.70
2023-08-11T15:54:05.246Z,4.80
2023-08-11T15:56:32.802Z,6.40
2023-08-11T15:59:00.384Z,4.37
2023-08-11T16:01:29.401Z,5.28
2023-08-11T16:03:57.094Z,6.20
2023-08-11T16:06:24.735Z,5.15
2023-08-11T16:08:52.635Z,5.60
2023-08-11T16:11:20.249Z,5.63
2023-08-11T16:13:47.833Z,4.57
2023-08-11T16:16:15.506Z,5.47
2023-08-11T16:18:44.504Z,4.88
2023-08-11T16:21:12.088Z,4.72
2023-08-11T16:23:39.744Z,5.50
2023-08-11T16:26:07.343Z,6.38
2023-08-11T16:28:34.905Z,5.50
2023-08-11T16:31:02.530Z,4.40
2023-08-11T16:33:30.136Z,5.30
2023-08-11T16:35:59.064Z,4.63
2023-08-11T16:38:26.600Z,4.88
2023-08-11T16:40:54.508Z,4.13
2023-08-11T16:43:22.056Z,4.97
2023-08-11T16:45:49.698Z,5.10
2023-08-11T16:48:19.721Z,4.43
2023-08-11T16:50:47.637Z,4.65
2023-08-11T16:53:16.566Z,4.10
2023-08-11T16:55:44.320Z,4.40
2023-08-11T16:58:11.914Z,4.50
2023-08-11T17:00:39.524Z,4.40
2023-08-11T17:03:07.131Z,5.30
2023-08-11T17:05:35.035Z,4.47
2023-08-11T17:08:03.877Z,4.93
2023-08-11T17:10:32.864Z,4.95
2023-08-11T17:13:00.446Z,4.77
2023-08-11T17:15:28.086Z,4.88
2023-08-11T17:17:55.663Z,5.13
2023-08-11T17:20:23.368Z,4.90
2023-08-11T17:22:50.960Z,4.50
2023-08-11T17:25:18.898Z,4.60
2023-08-11T17:27:47.932Z,5.18
2023-08-11T17:30:15.715Z,4.35
2023-08-11T17:32:43.800Z,9.48
2023-08-11T17:35:11.485Z,4.82
2023-08-11T17:37:39.210Z,4.43
2023-08-11T17:40:07.782Z,4.43
2023-08-11T17:42:35.419Z,5.50
2023-08-11T17:45:04.777Z,4.72
2023-08-11T17:47:32.469Z,4.75
2023-08-11T17:50:00.150Z,5.50
2023-08-11T17:52:27.800Z,5.55
2023-08-11T17:54:55.359Z,5.57
2023-08-11T17:57:23.226Z,4.90
2023-08-11T17:59:50.862Z,4.95
2023-08-11T18:02:19.905Z,5.33
2023-08-11T18:04:47.521Z,5.95
2023-08-11T18:07:15.150Z,4.40
2023-08-11T18:09:42.714Z,5.80
2023-08-11T18:12:11.465Z,4.50
2023-08-11T18:14:44.184Z,5.27
2023-08-11T18:17:11.755Z,5.50
2023-08-11T18:19:40.672Z,5.20
2023-08-11T18:22:08.465Z,4.47
2023-08-11T18:24:36.241Z,5.07
2023-08-11T18:27:03.809Z,4.57
2023-08-11T18:29:31.435Z,6.75
2023-08-11T18:31:59.016Z,5.47
2023-08-11T18:34:26.607Z,4.57
2023-08-11T18:36:55.539Z,5.05
2023-08-11T18:39:23.147Z,5.73
2023-08-11T18:41:50.864Z,4.90
2023-08-11T18:44:19.105Z,4.50
2023-08-11T18:46:46.781Z,4.18
2023-08-11T18:49:14.403Z,4.35
2023-08-11T18:51:42.226Z,4.60
2023-08-11T18:54:11.154Z,4.57
2023-08-11T18:56:43.288Z,4.40
2023-08-11T18:59:12.013Z,4.00
2023-08-11T19:01:39.635Z,5.60
2023-08-11T19:04:08.119Z,4.60
2023-08-11T19:06:38.458Z,4.78
2023-08-11T19:09:08.519Z,4.45
2023-08-11T19:11:38.842Z,5.75
2023-08-11T19:14:08.444Z,4.22
2023-08-11T19:16:37.084Z,4.57
2023-08-11T19:19:04.807Z,4.45
2023-08-11T19:21:32.589Z,4.20
2023-08-11T19:24:00.234Z,6.35
2023-08-11T19:26:27.846Z,4.43
2023-08-11T19:28:57.180Z,4.60
2023-08-11T19:31:24.883Z,4.60
2023-08-11T19:33:52.520Z,4.72
2023-08-11T19:36:20.069Z,4.30
2023-08-11T19:38:47.633Z,5.35
2023-08-11T19:41:15.270Z,7.10
2023-08-11T19:43:42.904Z,5.47
2023-08-11T19:46:11.933Z,4.70
2023-08-11T19:48:39.488Z,5.60
2023-08-11T19:51:07.121Z,5.00
2023-08-11T19:53:34.694Z,4.90
2023-08-11T19:56:02.270Z,4.57
2023-08-11T19:58:29.862Z,5.50
2023-08-11T20:00:57.680Z,7.10
2023-08-11T20:03:26.629Z,4.93
2023-08-11T20:05:54.296Z,4.70
2023-08-11T20:08:21.856Z,7.90
2023-08-11T20:10:50.214Z,4.75
2023-08-11T20:13:18.290Z,5.20
2023-08-11T20:15:47.797Z,5.22
2023-08-11T20:18:15.588Z,4.87
2023-08-11T20:20:45.883Z,5.68
2023-08-11T20:23:13.467Z,4.65
2023-08-11T20:25:41.048Z,4.25
2023-08-11T20:28:08.795Z,5.57
2023-08-11T20:30:36.967Z,6.17
2023-08-11T20:33:04.707Z,4.80
2023-08-11T20:35:32.301Z,5.30
2023-08-11T20:38:01.280Z,5.47
2023-08-11T20:40:28.866Z,6.78
2023-08-11T20:42:56.505Z,4.70
2023-08-11T20:45:29.840Z,5.70
2023-08-11T20:47:57.702Z,6.38
2023-08-11T20:50:25.315Z,5.20
2023-08-11T20:52:52.902Z,5.70
2023-08-11T20:55:21.859Z,5.87
2023-08-11T20:57:49.802Z,6.15
2023-08-11T21:00:17.707Z,4.82
2023-08-11T21:02:45.347Z,5.18
2023-08-11T21:05:13.052Z,5.22
2023-08-11T21:07:40.627Z,5.57
2023-08-11T21:10:08.819Z,5.55
2023-08-11T21:12:37.836Z,6.45
2023-08-11T21:15:05.733Z,6.03
2023-08-11T21:17:33.389Z,5.63
2023-08-11T21:20:01.580Z,5.50
2023-08-11T21:22:29.189Z,5.90
2023-08-11T21:24:56.823Z,5.60
2023-08-11T21:27:24.466Z,6.05
2023-08-11T21:29:53.427Z,6.20
2023-08-11T21:32:23.589Z,5.43
2023-08-11T21:34:51.547Z,7.43
2023-08-11T21:37:19.158Z,5.78
2023-08-11T21:39:46.715Z,6.03
2023-08-11T21:42:14.324Z,6.93
2023-08-11T21:44:41.937Z,6.00
2023-08-11T21:47:10.956Z,6.90
2023-08-11T21:49:40.973Z,5.78
2023-08-11T21:52:10.402Z,5.20
2023-08-11T21:54:39.644Z,5.65
2023-08-11T21:57:08.706Z,6.50
2023-08-11T21:59:36.509Z,5.85
2023-08-11T22:02:04.256Z,6.05
2023-08-11T22:04:33.214Z,5.18
2023-08-11T22:07:00.804Z,5.28
2023-08-11T22:09:28.419Z,6.77
2023-08-11T22:11:56.053Z,5.93
2023-08-11T22:14:23.649Z,6.88
2023-08-11T22:16:52.197Z,5.70
2023-08-11T22:19:19.852Z,5.28
2023-08-11T22:21:48.769Z,6.53
2023-08-11T22:24:24.125Z,6.28
2023-08-11T22:26:58.453Z,7.00
2023-08-11T22:29:26.059Z,6.13
2023-08-11T22:31:53.619Z,5.53
2023-08-11T22:34:21.183Z,6.90
2023-08-11T22:36:52.153Z,6.40
2023-08-11T22:39:20.070Z,6.82
2023-08-11T22:41:47.687Z,6.05
2023-08-11T22:44:15.258Z,7.63
2023-08-11T22:46:42.840Z,5.90
2023-08-11T22:49:10.575Z,6.85
2023-08-11T22:51:38.151Z,7.15
2023-08-11T22:54:07.180Z,6.00
2023-08-11T22:56:34.801Z,6.75
2023-08-11T22:59:02.484Z,6.23
2023-08-11T23:01:30.138Z,6.45
2023-08-11T23:03:57.946Z,5.43
2023-08-11T23:06:25.580Z,6.93
2023-08-11T23:08:53.168Z,7.07
2023-08-11T23:11:22.201Z,6.80
2023-08-11T23:13:49.788Z,6.88
2023-08-11T23:16:17.560Z,6.75
2023-08-11T23:18:45.362Z,7.00
2023-08-11T23:21:12.939Z,6.95
2023-08-11T23:23:40.547Z,6.63
2023-08-11T23:26:08.284Z,6.80
2023-08-11T23:28:38.117Z,6.50
2023-08-11T23:31:05.844Z,7.38
2023-08-11T23:33:34.030Z,7.45
2023-08-11T23:36:01.625Z,7.50
2023-08-11T23:38:29.191Z,7.53
2023-08-11T23:40:56.897Z,5.78
2023-08-11T23:43:24.742Z,7.13
2023-08-11T23:45:53.708Z,6.63
2023-08-11T23:48:21.429Z,7.90
2023-08-11T23:50:49.080Z,6.88
2023-08-11T23:53:16.681Z,7.07
2023-08-11T23:55:44.326Z,7.45
2023-08-11T23:58:12.699Z,8.50
